sensor_id;sensor_type;location;lat;lon;timestamp;pressure;altitude;pressure_sealevel;temperature;humidity
73748;BME280;62056;52.130;5.428;2023-03-01T00:01:10;103477.91;;;0.38;59.71
73748;BME280;62056;52.130;5.428;2023-03-01T00:03:37;103485.25;;;0.35;60.54
73748;BME280;62056;52.130;5.428;2023-03-01T00:06:05;103479.34;;;0.33;61.76
73748;BME280;62056;52.130;5.428;2023-03-01T00:08:32;103485.84;;;0.29;61.83
73748;BME280;62056;52.130;5.428;2023-03-01T00:11:24;103484.38;;;0.26;63.06
73748;BME280;62056;52.130;5.428;2023-03-01T00:13:53;103481.09;;;0.24;62.06
73748;BME280;62056;52.130;5.428;2023-03-01T00:16:25;103477.94;;;0.20;60.25
73748;BME280;62056;52.130;5.428;2023-03-01T00:18:54;103479.88;;;0.18;62.03
73748;BME280;62056;52.130;5.428;2023-03-01T00:21:21;103473.97;;;0.16;62.11
73748;BME280;62056;52.130;5.428;2023-03-01T00:23:48;103471.69;;;0.13;60.40
73748;BME280;62056;52.130;5.428;2023-03-01T00:26:17;103474.44;;;0.12;61.85
73748;BME280;62056;52.130;5.428;2023-03-01T00:28:44;103466.91;;;0.09;59.92
73748;BME280;62056;52.130;5.428;2023-03-01T00:31:14;103468.69;;;0.08;61.73
73748;BME280;62056;52.130;5.428;2023-03-01T00:33:42;103455.91;;;0.05;61.06
73748;BME280;62056;52.130;5.428;2023-03-01T00:36:10;103460.47;;;0.03;63.19
73748;BME280;62056;52.130;5.428;2023-03-01T00:38:38;103457.19;;;0.01;61.69
73748;BME280;62056;52.130;5.428;2023-03-01T00:41:10;103462.56;;;-0.01;63.62
73748;BME280;62056;52.130;5.428;2023-03-01T00:43:38;103467.13;;;-0.03;61.81
73748;BME280;62056;52.130;5.428;2023-03-01T00:46:07;103462.88;;;-0.04;63.39
73748;BME280;62056;52.130;5.428;2023-03-01T00:48:34;103466.47;;;-0.05;61.52
73748;BME280;62056;52.130;5.428;2023-03-01T00:51:15;103466.78;;;-0.08;60.41
73748;BME280;62056;52.130;5.428;2023-03-01T00:53:43;103466.78;;;-0.08;63.25
73748;BME280;62056;52.130;5.428;2023-03-01T00:56:11;103461.69;;;-0.09;62.69
73748;BME280;62056;52.130;5.428;2023-03-01T00:58:38;103461.69;;;-0.09;62.17
73748;BME280;62056;52.130;5.428;2023-03-01T01:01:12;103455.78;;;-0.11;62.81
73748;BME280;62056;52.130;5.428;2023-03-01T01:03:46;103458.53;;;-0.13;64.11
73748;BME280;62056;52.130;5.428;2023-03-01T01:06:18;103451.81;;;-0.15;65.34
73748;BME280;62056;52.130;5.428;2023-03-01T01:08:45;103445.09;;;-0.18;64.83
73748;BME280;62056;52.130;5.428;2023-03-01T01:11:12;103443.44;;;-0.19;62.84
73748;BME280;62056;52.130;5.428;2023-03-01T01:13:40;103439.19;;;-0.20;64.26
73748;BME280;62056;52.130;5.428;2023-03-01T01:16:08;103435.78;;;-0.21;67.82
73748;BME280;62056;52.130;5.428;2023-03-01T01:18:34;103430.81;;;-0.24;66.99
73748;BME280;62056;52.130;5.428;2023-03-01T01:21:06;103441.44;;;-0.25;64.96
73748;BME280;62056;52.130;5.428;2023-03-01T01:23:33;103428.66;;;-0.28;65.64
73748;BME280;62056;52.130;5.428;2023-03-01T01:26:05;103429.78;;;-0.31;66.54
73748;BME280;62056;52.130;5.428;2023-03-01T01:28:32;103428.31;;;-0.33;67.24
73748;BME280;62056;52.130;5.428;2023-03-01T01:30:59;103424.84;;;-0.34;67.07
73748;BME280;62056;52.130;5.428;2023-03-01T01:33:26;103419.94;;;-0.37;66.35
73748;BME280;62056;52.130;5.428;2023-03-01T01:35:53;103414.56;;;-0.35;67.38
73748;BME280;62056;52.130;5.428;2023-03-01T01:38:20;103413.03;;;-0.38;68.67
73748;BME280;62056;52.130;5.428;2023-03-01T01:40:49;103415.16;;;-0.42;66.53
73748;BME280;62056;52.130;5.428;2023-03-01T01:43:23;103418.88;;;-0.44;72.25
73748;BME280;62056;52.130;5.428;2023-03-01T01:45:50;103414.75;;;-0.47;66.02
73748;BME280;62056;52.130;5.428;2023-03-01T01:48:20;103415.56;;;-0.46;70.56
73748;BME280;62056;52.130;5.428;2023-03-01T01:50:58;103410.66;;;-0.49;71.70
73748;BME280;62056;52.130;5.428;2023-03-01T01:53:25;103415.06;;;-0.50;72.24
73748;BME280;62056;52.130;5.428;2023-03-01T01:55:55;103414.09;;;-0.49;68.91
73748;BME280;62056;52.130;5.428;2023-03-01T01:58:24;103412.59;;;-0.51;67.24
73748;BME280;62056;52.130;5.428;2023-03-01T02:00:52;103416.19;;;-0.52;69.54
73748;BME280;62056;52.130;5.428;2023-03-01T02:03:27;103404.09;;;-0.53;71.52
73748;BME280;62056;52.130;5.428;2023-03-01T02:08:49;103398.63;;;-0.60;68.88
73748;BME280;62056;52.130;5.428;2023-03-01T02:11:19;103405.81;;;-0.62;67.67
73748;BME280;62056;52.130;5.428;2023-03-01T02:13:46;103404.28;;;-0.65;66.81
73748;BME280;62056;52.130;5.428;2023-03-01T02:16:14;103399.22;;;-0.66;67.39
73748;BME280;62056;52.130;5.428;2023-03-01T02:18:43;103401.84;;;-0.66;68.33
73748;BME280;62056;52.130;5.428;2023-03-01T02:24:10;103400.50;;;-0.70;76.04
73748;BME280;62056;52.130;5.428;2023-03-01T02:26:47;103406.84;;;-0.73;67.97
73748;BME280;62056;52.130;5.428;2023-03-01T02:29:14;103393.59;;;-0.71;70.41
73748;BME280;62056;52.130;5.428;2023-03-01T02:31:41;103391.97;;;-0.72;70.50
73748;BME280;62056;52.130;5.428;2023-03-01T02:34:15;103386.09;;;-0.74;73.32
73748;BME280;62056;52.130;5.428;2023-03-01T02:36:47;103389.66;;;-0.75;70.92
73748;BME280;62056;52.130;5.428;2023-03-01T02:39:18;103378.53;;;-0.77;70.44
73748;BME280;62056;52.130;5.428;2023-03-01T02:41:49;103372.63;;;-0.79;71.14
73748;BME280;62056;52.130;5.428;2023-03-01T02:44:16;103375.53;;;-0.83;71.39
73748;BME280;62056;52.130;5.428;2023-03-01T02:46:47;103366.03;;;-0.84;69.84
73748;BME280;62056;52.130;5.428;2023-03-01T02:49:23;103381.03;;;-0.86;68.86
73748;BME280;62056;52.130;5.428;2023-03-01T02:57:18;103365.97;;;-0.92;69.03
73748;BME280;62056;52.130;5.428;2023-03-01T02:59:46;103368.75;;;-0.93;71.57
73748;BME280;62056;52.130;5.428;2023-03-01T03:02:23;103376.72;;;-0.95;71.03
73748;BME280;62056;52.130;5.428;2023-03-01T03:05:06;103373.44;;;-0.97;71.76
73748;BME280;62056;52.130;5.428;2023-03-01T03:07:39;103366.53;;;-0.98;73.98
73748;BME280;62056;52.130;5.428;2023-03-01T03:10:12;103362.44;;;-1.00;72.43
73748;BME280;62056;52.130;5.428;2023-03-01T03:12:40;103361.78;;;-1.03;70.40
73748;BME280;62056;52.130;5.428;2023-03-01T03:15:08;103359.03;;;-1.01;70.52
73748;BME280;62056;52.130;5.428;2023-03-01T03:17:36;103367.53;;;-0.99;70.47
73748;BME280;62056;52.130;5.428;2023-03-01T03:20:05;103365.72;;;-0.98;70.97
73748;BME280;62056;52.130;5.428;2023-03-01T03:22:31;103360.38;;;-0.97;70.28
73748;BME280;62056;52.130;5.428;2023-03-01T03:25:00;103351.72;;;-0.97;70.96
73748;BME280;62056;52.130;5.428;2023-03-01T03:27:27;103351.84;;;-0.99;70.28
73748;BME280;62056;52.130;5.428;2023-03-01T03:29:54;103347.91;;;-1.03;73.14
73748;BME280;62056;52.130;5.428;2023-03-01T03:32:21;103351.63;;;-1.06;71.64
73748;BME280;62056;52.130;5.428;2023-03-01T03:34:47;103358.66;;;-1.06;71.05
73748;BME280;62056;52.130;5.428;2023-03-01T03:37:15;103359.75;;;-1.09;71.40
73748;BME280;62056;52.130;5.428;2023-03-01T03:40:00;103362.53;;;-1.10;71.29
73748;BME280;62056;52.130;5.428;2023-03-01T03:42:27;103360.06;;;-1.12;70.40
73748;BME280;62056;52.130;5.428;2023-03-01T03:44:53;103351.00;;;-1.17;74.08
73748;BME280;62056;52.130;5.428;2023-03-01T03:47:20;103353.38;;;-1.24;72.14
73748;BME280;62056;52.130;5.428;2023-03-01T03:49:46;103349.56;;;-1.30;68.87
73748;BME280;62056;52.130;5.428;2023-03-01T03:52:13;103347.38;;;-1.34;68.20
73748;BME280;62056;52.130;5.428;2023-03-01T03:54:40;103337.06;;;-1.36;70.36
73748;BME280;62056;52.130;5.428;2023-03-01T03:57:07;103342.75;;;-1.40;69.09
73748;BME280;62056;52.130;5.428;2023-03-01T03:59:33;103336.72;;;-1.41;68.21
73748;BME280;62056;52.130;5.428;2023-03-01T04:02:00;103336.16;;;-1.45;70.93
73748;BME280;62056;52.130;5.428;2023-03-01T04:04:27;103342.38;;;-1.46;71.29
73748;BME280;62056;52.130;5.428;2023-03-01T04:06:53;103344.13;;;-1.46;70.94
73748;BME280;62056;52.130;5.428;2023-03-01T04:09:20;103339.22;;;-1.49;71.46
73748;BME280;62056;52.130;5.428;2023-03-01T04:11:46;103346.63;;;-1.54;73.37
73748;BME280;62056;52.130;5.428;2023-03-01T04:14:13;103347.06;;;-1.59;73.88
73748;BME280;62056;52.130;5.428;2023-03-01T04:16:39;103346.53;;;-1.63;71.93
73748;BME280;62056;52.130;5.428;2023-03-01T04:19:06;103346.84;;;-1.66;70.33
73748;BME280;62056;52.130;5.428;2023-03-01T04:21:33;103346.28;;;-1.69;69.09
73748;BME280;62056;52.130;5.428;2023-03-01T04:23:59;103344.66;;;-1.70;68.75
73748;BME280;62056;52.130;5.428;2023-03-01T04:26:26;103348.22;;;-1.71;71.18
73748;BME280;62056;52.130;5.428;2023-03-01T04:28:53;103352.91;;;-1.75;72.55
73748;BME280;62056;52.130;5.428;2023-03-01T04:31:20;103348.66;;;-1.76;72.19
73748;BME280;62056;52.130;5.428;2023-03-01T04:36:19;103351.00;;;-1.83;72.74
73748;BME280;62056;52.130;5.428;2023-03-01T04:38:46;103351.28;;;-1.86;72.83
73748;BME280;62056;52.130;5.428;2023-03-01T04:41:16;103352.38;;;-1.88;70.40
73748;BME280;62056;52.130;5.428;2023-03-01T04:43:44;103337.97;;;-1.92;71.04
73748;BME280;62056;52.130;5.428;2023-03-01T04:46:13;103343.34;;;-1.94;70.35
73748;BME280;62056;52.130;5.428;2023-03-01T04:48:42;103331.41;;;-1.96;70.39
73748;BME280;62056;52.130;5.428;2023-03-01T04:51:10;103333.34;;;-1.98;71.82
73748;BME280;62056;52.130;5.428;2023-03-01T04:53:40;103340.63;;;-2.02;71.87
73748;BME280;62056;52.130;5.428;2023-03-01T04:56:07;103322.50;;;-2.04;71.50
73748;BME280;62056;52.130;5.428;2023-03-01T04:58:34;103321.03;;;-2.06;72.44
73748;BME280;62056;52.130;5.428;2023-03-01T05:01:01;103324.56;;;-2.07;72.56
73748;BME280;62056;52.130;5.428;2023-03-01T05:03:27;103317.88;;;-2.10;74.30
73748;BME280;62056;52.130;5.428;2023-03-01T05:05:58;103309.22;;;-2.10;71.45
73748;BME280;62056;52.130;5.428;2023-03-01T05:08:25;103310.31;;;-2.13;72.07
73748;BME280;62056;52.130;5.428;2023-03-01T05:10:53;103306.88;;;-2.13;71.64
73748;BME280;62056;52.130;5.428;2023-03-01T05:13:21;103298.50;;;-2.17;70.65
73748;BME280;62056;52.130;5.428;2023-03-01T05:15:54;103309.25;;;-2.20;72.34
73748;BME280;62056;52.130;5.428;2023-03-01T05:18:21;103305.81;;;-2.20;69.82
73748;BME280;62056;52.130;5.428;2023-03-01T05:20:56;103298.25;;;-2.24;71.22
73748;BME280;62056;52.130;5.428;2023-03-01T05:23:27;103299.38;;;-2.26;71.65
73748;BME280;62056;52.130;5.428;2023-03-01T05:25:54;103299.38;;;-2.26;69.16
73748;BME280;62056;52.130;5.428;2023-03-01T05:28:23;103291.00;;;-2.30;70.91
73748;BME280;62056;52.130;5.428;2023-03-01T05:30:50;103287.03;;;-2.34;71.25
73748;BME280;62056;52.130;5.428;2023-03-01T05:33:18;103284.59;;;-2.35;73.39
73748;BME280;62056;52.130;5.428;2023-03-01T05:35:45;103286.34;;;-2.36;72.48
73748;BME280;62056;52.130;5.428;2023-03-01T05:38:12;103277.72;;;-2.36;70.14
73748;BME280;62056;52.130;5.428;2023-03-01T05:40:44;103273.59;;;-2.39;73.54
73748;BME280;62056;52.130;5.428;2023-03-01T05:43:12;103273.88;;;-2.42;73.54
73748;BME280;62056;52.130;5.428;2023-03-01T05:45:40;103268.81;;;-2.43;75.27
73748;BME280;62056;52.130;5.428;2023-03-01T05:48:08;103264.84;;;-2.48;76.05
73748;BME280;62056;52.130;5.428;2023-03-01T05:50:37;103264.28;;;-2.51;74.28
73748;BME280;62056;52.130;5.428;2023-03-01T05:53:16;103271.13;;;-2.50;73.72
73748;BME280;62056;52.130;5.428;2023-03-01T05:55:43;103259.22;;;-2.53;71.14
73748;BME280;62056;52.130;5.428;2023-03-01T05:58:12;103272.25;;;-2.53;73.74
73748;BME280;62056;52.130;5.428;2023-03-01T06:00:41;103258.28;;;-2.52;71.09
73748;BME280;62056;52.130;5.428;2023-03-01T06:03:10;103254.69;;;-2.51;69.77
73748;BME280;62056;52.130;5.428;2023-03-01T06:05:37;103268.41;;;-2.49;70.54
73748;BME280;62056;52.130;5.428;2023-03-01T06:08:04;103265.66;;;-2.47;73.36
73748;BME280;62056;52.130;5.428;2023-03-01T06:10:31;103259.47;;;-2.46;72.77
73748;BME280;62056;52.130;5.428;2023-03-01T06:12:58;103264.69;;;-2.46;73.78
73748;BME280;62056;52.130;5.428;2023-03-01T06:15:25;103256.19;;;-2.48;74.90
73748;BME280;62056;52.130;5.428;2023-03-01T06:17:53;103267.59;;;-2.49;74.14
73748;BME280;62056;52.130;5.428;2023-03-01T06:20:27;103267.59;;;-2.49;73.78
73748;BME280;62056;52.130;5.428;2023-03-01T06:22:54;103271.00;;;-2.49;73.98
73748;BME280;62056;52.130;5.428;2023-03-01T06:25:23;103268.41;;;-2.49;73.88
73748;BME280;62056;52.130;5.428;2023-03-01T06:27:50;103271.81;;;-2.48;73.77
73748;BME280;62056;52.130;5.428;2023-03-01T06:30:20;103264.97;;;-2.49;74.53
73748;BME280;62056;52.130;5.428;2023-03-01T06:32:49;103268.00;;;-2.54;74.74
73748;BME280;62056;52.130;5.428;2023-03-01T06:35:17;103270.88;;;-2.57;73.52
73748;BME280;62056;52.130;5.428;2023-03-01T06:37:45;103270.19;;;-2.59;72.08
73748;BME280;62056;52.130;5.428;2023-03-01T06:40:12;103270.06;;;-2.57;72.18
73748;BME280;62056;52.130;5.428;2023-03-01T06:42:42;103275.28;;;-2.57;73.25
73748;BME280;62056;52.130;5.428;2023-03-01T06:45:10;103269.09;;;-2.56;71.63
73748;BME280;62056;52.130;5.428;2023-03-01T06:47:37;103266.66;;;-2.58;74.43
73748;BME280;62056;52.130;5.428;2023-03-01T06:50:04;103270.31;;;-2.60;74.88
73748;BME280;62056;52.130;5.428;2023-03-01T06:52:31;103272.94;;;-2.60;71.89
73748;BME280;62056;52.130;5.428;2023-03-01T06:54:58;103266.78;;;-2.59;72.44
73748;BME280;62056;52.130;5.428;2023-03-01T06:57:25;103264.16;;;-2.59;72.86
73748;BME280;62056;52.130;5.428;2023-03-01T06:59:52;103267.59;;;-2.59;73.55
73748;BME280;62056;52.130;5.428;2023-03-01T07:02:19;103273.47;;;-2.57;73.59
73748;BME280;62056;52.130;5.428;2023-03-01T07:04:45;103271.69;;;-2.56;72.85
73748;BME280;62056;52.130;5.428;2023-03-01T07:07:12;103267.16;;;-2.54;74.11
73748;BME280;62056;52.130;5.428;2023-03-01T07:09:38;103263.63;;;-2.53;71.64
73748;BME280;62056;52.130;5.428;2023-03-01T07:12:05;103265.94;;;-2.50;70.27
73748;BME280;62056;52.130;5.428;2023-03-01T07:14:32;103264.84;;;-2.48;70.51
73748;BME280;62056;52.130;5.428;2023-03-01T07:16:59;103264.41;;;-2.43;72.50
73748;BME280;62056;52.130;5.428;2023-03-01T07:19:25;103272.78;;;-2.39;75.02
73748;BME280;62056;52.130;5.428;2023-03-01T07:21:52;103275.91;;;-2.36;74.49
73748;BME280;62056;52.130;5.428;2023-03-01T07:24:19;103275.78;;;-2.34;71.82
73748;BME280;62056;52.130;5.428;2023-03-01T07:26:49;103276.34;;;-2.31;70.81
73748;BME280;62056;52.130;5.428;2023-03-01T07:29:17;103276.84;;;-2.27;72.79
73748;BME280;62056;52.130;5.428;2023-03-01T07:31:44;103275.78;;;-2.25;70.67
73748;BME280;62056;52.130;5.428;2023-03-01T07:34:11;103273.56;;;-2.19;71.57
73748;BME280;62056;52.130;5.428;2023-03-01T07:36:37;103278.06;;;-2.12;71.69
73748;BME280;62056;52.130;5.428;2023-03-01T07:39:06;103279.00;;;-2.03;72.42
73748;BME280;62056;52.130;5.428;2023-03-01T07:41:32;103286.81;;;-1.93;73.18
73748;BME280;62056;52.130;5.428;2023-03-01T07:43:59;103279.75;;;-1.83;74.08
73748;BME280;62056;52.130;5.428;2023-03-01T07:46:26;103285.59;;;-1.71;75.29
73748;BME280;62056;52.130;5.428;2023-03-01T07:48:53;103288.03;;;-1.60;76.64
73748;BME280;62056;52.130;5.428;2023-03-01T07:51:20;103297.31;;;-1.48;76.68
73748;BME280;62056;52.130;5.428;2023-03-01T07:53:47;103289.28;;;-1.36;76.91
73748;BME280;62056;52.130;5.428;2023-03-01T07:56:15;103289.06;;;-1.25;78.01
73748;BME280;62056;52.130;5.428;2023-03-01T07:58:45;103288.03;;;-1.14;77.43
73748;BME280;62056;52.130;5.428;2023-03-01T08:01:16;103288.63;;;-1.03;78.60
73748;BME280;62056;52.130;5.428;2023-03-01T08:03:42;103282.66;;;-0.95;78.39
73748;BME280;62056;52.130;5.428;2023-03-01T08:06:11;103291.25;;;-0.85;79.30
73748;BME280;62056;52.130;5.428;2023-03-01T08:08:38;103291.19;;;-0.75;78.30
73748;BME280;62056;52.130;5.428;2023-03-01T08:11:06;103285.72;;;-0.64;77.71
73748;BME280;62056;52.130;5.428;2023-03-01T08:13:33;103280.22;;;-0.52;78.33
73748;BME280;62056;52.130;5.428;2023-03-01T08:16:02;103282.63;;;-0.41;77.04
73748;BME280;62056;52.130;5.428;2023-03-01T08:18:29;103285.97;;;-0.31;77.81
73748;BME280;62056;52.130;5.428;2023-03-01T08:20:56;103282.25;;;-0.20;77.58
73748;BME280;62056;52.130;5.428;2023-03-01T08:23:27;103285.59;;;-0.10;76.60
73748;BME280;62056;52.130;5.428;2023-03-01T08:25:53;103279.41;;;-0.01;75.95
73748;BME280;62056;52.130;5.428;2023-03-01T08:28:20;103277.66;;;0.08;76.34
73748;BME280;62056;52.130;5.428;2023-03-01T08:30:47;103283.78;;;0.17;77.00
73748;BME280;62056;52.130;5.428;2023-03-01T08:33:13;103277.75;;;0.25;76.68
73748;BME280;62056;52.130;5.428;2023-03-01T08:35:40;103272.38;;;0.34;75.39
73748;BME280;62056;52.130;5.428;2023-03-01T08:38:07;103271.44;;;0.44;79.78
73748;BME280;62056;52.130;5.428;2023-03-01T08:40:33;103269.69;;;0.52;80.41
73748;BME280;62056;52.130;5.428;2023-03-01T08:43:00;103263.63;;;0.60;76.76
73748;BME280;62056;52.130;5.428;2023-03-01T08:45:26;103262.84;;;0.68;76.57
73748;BME280;62056;52.130;5.428;2023-03-01T08:47:53;103263.81;;;0.75;75.48
73748;BME280;62056;52.130;5.428;2023-03-01T08:50:20;103267.28;;;0.84;73.83
73748;BME280;62056;52.130;5.428;2023-03-01T08:52:49;103256.81;;;0.92;73.84
73748;BME280;62056;52.130;5.428;2023-03-01T08:55:16;103254.19;;;1.00;75.15
73748;BME280;62056;52.130;5.428;2023-03-01T08:57:45;103253.22;;;1.09;76.75
73748;BME280;62056;52.130;5.428;2023-03-01T09:00:19;103248.94;;;1.16;73.81
73748;BME280;62056;52.130;5.428;2023-03-01T09:02:49;103248.94;;;1.25;73.71
73748;BME280;62056;52.130;5.428;2023-03-01T09:05:21;103252.38;;;1.33;73.36
73748;BME280;62056;52.130;5.428;2023-03-01T09:07:47;103237.63;;;1.40;73.53
73748;BME280;62056;52.130;5.428;2023-03-01T09:10:14;103236.81;;;1.48;74.31
73748;BME280;62056;52.130;5.428;2023-03-01T09:12:41;103239.44;;;1.56;75.32
73748;BME280;62056;52.130;5.428;2023-03-01T09:15:09;103231.72;;;1.63;74.08
73748;BME280;62056;52.130;5.428;2023-03-01T09:17:36;103228.06;;;1.72;76.35
73748;BME280;62056;52.130;5.428;2023-03-01T09:20:03;103223.59;;;1.81;75.41
73748;BME280;62056;52.130;5.428;2023-03-01T09:22:33;103227.84;;;1.90;74.84
73748;BME280;62056;52.130;5.428;2023-03-01T09:25:01;103221.94;;;1.96;69.67
73748;BME280;62056;52.130;5.428;2023-03-01T09:27:27;103216.28;;;2.08;73.50
73748;BME280;62056;52.130;5.428;2023-03-01T09:29:54;103212.00;;;2.15;71.23
73748;BME280;62056;52.130;5.428;2023-03-01T09:32:22;103206.53;;;2.25;71.93
73748;BME280;62056;52.130;5.428;2023-03-01T09:34:49;103203.03;;;2.32;73.09
73748;BME280;62056;52.130;5.428;2023-03-01T09:37:34;103196.56;;;2.43;72.70
73748;BME280;62056;52.130;5.428;2023-03-01T09:40:05;103197.34;;;2.52;71.16
73748;BME280;62056;52.130;5.428;2023-03-01T09:42:34;103193.69;;;2.61;70.55
73748;BME280;62056;52.130;5.428;2023-03-01T09:45:05;103202.78;;;2.73;73.76
73748;BME280;62056;52.130;5.428;2023-03-01T09:47:34;103200.75;;;2.83;69.75
73748;BME280;62056;52.130;5.428;2023-03-01T09:50:09;103196.69;;;2.96;69.84
73748;BME280;62056;52.130;5.428;2023-03-01T09:55:30;103190.94;;;3.15;66.94
73748;BME280;62056;52.130;5.428;2023-03-01T10:00:50;103187.25;;;3.39;70.58
73748;BME280;62056;52.130;5.428;2023-03-01T10:05:59;103199.59;;;3.54;69.08
73748;BME280;62056;52.130;5.428;2023-03-01T10:08:36;103192.25;;;3.64;70.66
73748;BME280;62056;52.130;5.428;2023-03-01T10:11:17;103189.53;;;3.72;70.52
73748;BME280;62056;52.130;5.428;2023-03-01T10:16:52;103190.34;;;3.88;68.60
73748;BME280;62056;52.130;5.428;2023-03-01T10:22:13;103186.03;;;4.01;65.87
73748;BME280;62056;52.130;5.428;2023-03-01T10:24:42;103183.28;;;4.10;62.43
73748;BME280;62056;52.130;5.428;2023-03-01T10:27:19;103178.38;;;4.21;66.16
73748;BME280;62056;52.130;5.428;2023-03-01T10:30:12;103182.91;;;4.28;67.03
73748;BME280;62056;52.130;5.428;2023-03-01T10:32:44;103177.69;;;4.34;64.97
73748;BME280;62056;52.130;5.428;2023-03-01T10:35:22;103170.47;;;4.43;62.43
73748;BME280;62056;52.130;5.428;2023-03-01T10:38:11;103172.81;;;4.53;59.04
73748;BME280;62056;52.130;5.428;2023-03-01T10:43:26;103163.63;;;4.70;65.50
73748;BME280;62056;52.130;5.428;2023-03-01T10:45:57;103162.06;;;4.76;65.03
73748;BME280;62056;52.130;5.428;2023-03-01T10:48:25;103152.19;;;4.84;62.84
73748;BME280;62056;52.130;5.428;2023-03-01T10:53:30;103144.63;;;5.03;62.27
73748;BME280;62056;52.130;5.428;2023-03-01T10:56:09;103139.78;;;5.06;58.92
73748;BME280;62056;52.130;5.428;2023-03-01T10:58:39;103140.63;;;5.14;59.18
73748;BME280;62056;52.130;5.428;2023-03-01T11:01:29;103128.97;;;5.30;59.10
73748;BME280;62056;52.130;5.428;2023-03-01T11:06:37;103116.81;;;5.35;58.18
73748;BME280;62056;52.130;5.428;2023-03-01T11:11:45;103111.00;;;5.46;59.90
73748;BME280;62056;52.130;5.428;2023-03-01T11:14:20;103114.69;;;5.52;56.96
73748;BME280;62056;52.130;5.428;2023-03-01T11:19:26;103098.47;;;5.62;56.97
73748;BME280;62056;52.130;5.428;2023-03-01T11:22:12;103096.88;;;5.74;57.28
73748;BME280;62056;52.130;5.428;2023-03-01T11:24:43;103088.16;;;5.80;57.98
73748;BME280;62056;52.130;5.428;2023-03-01T11:27:31;103092.22;;;5.83;55.14
73748;BME280;62056;52.130;5.428;2023-03-01T11:32:40;103087.03;;;5.96;55.73
73748;BME280;62056;52.130;5.428;2023-03-01T11:35:15;103089.44;;;5.98;53.92
73748;BME280;62056;52.130;5.428;2023-03-01T11:40:26;103083.16;;;6.05;53.30
73748;BME280;62056;52.130;5.428;2023-03-01T11:51:38;103085.00;;;6.25;52.93
73748;BME280;62056;52.130;5.428;2023-03-01T11:57:07;103079.34;;;6.35;51.32
73748;BME280;62056;52.130;5.428;2023-03-01T12:13:49;103072.22;;;6.55;50.30
73748;BME280;62056;52.130;5.428;2023-03-01T12:16:34;103080.97;;;6.56;46.39
73748;BME280;62056;52.130;5.428;2023-03-01T12:19:12;103068.97;;;6.60;49.12
73748;BME280;62056;52.130;5.428;2023-03-01T12:21:55;103070.78;;;6.66;50.78
73748;BME280;62056;52.130;5.428;2023-03-01T12:24:50;103071.59;;;6.66;48.25
73748;BME280;62056;52.130;5.428;2023-03-01T12:27:47;103068.75;;;6.75;49.39
73748;BME280;62056;52.130;5.428;2023-03-01T12:35:54;103060.00;;;6.87;49.00
73748;BME280;62056;52.130;5.428;2023-03-01T12:38:40;103046.78;;;6.87;46.94
73748;BME280;62056;52.130;5.428;2023-03-01T12:49:10;103038.22;;;6.92;44.25
73748;BME280;62056;52.130;5.428;2023-03-01T12:51:40;103034.94;;;6.97;46.34
73748;BME280;62056;52.130;5.428;2023-03-01T12:54:16;103030.84;;;7.01;46.85
73748;BME280;62056;52.130;5.428;2023-03-01T12:56:43;103015.16;;;7.06;47.09
73748;BME280;62056;52.130;5.428;2023-03-01T13:04:30;103009.03;;;7.19;47.56
73748;BME280;62056;52.130;5.428;2023-03-01T13:09:51;102985.34;;;7.30;47.15
73748;BME280;62056;52.130;5.428;2023-03-01T13:13:00;102986.13;;;7.38;45.25
73748;BME280;62056;52.130;5.428;2023-03-01T13:15:30;102985.69;;;7.41;46.84
73748;BME280;62056;52.130;5.428;2023-03-01T13:20:44;102982.03;;;7.42;45.08
73748;BME280;62056;52.130;5.428;2023-03-01T13:28:47;102975.03;;;7.54;46.02
73748;BME280;62056;52.130;5.428;2023-03-01T13:33:50;102965.25;;;7.55;44.27
73748;BME280;62056;52.130;5.428;2023-03-01T13:44:20;102943.63;;;7.58;44.76
73748;BME280;62056;52.130;5.428;2023-03-01T13:46:49;102942.63;;;7.59;45.48
73748;BME280;62056;52.130;5.428;2023-03-01T13:49:20;102945.06;;;7.54;42.50
73748;BME280;62056;52.130;5.428;2023-03-01T13:51:49;102943.28;;;7.54;42.27
73748;BME280;62056;52.130;5.428;2023-03-01T13:54:25;102936.88;;;7.62;45.32
73748;BME280;62056;52.130;5.428;2023-03-01T13:56:52;102942.94;;;7.69;44.38
73748;BME280;62056;52.130;5.428;2023-03-01T13:59:21;102933.81;;;7.65;43.62
73748;BME280;62056;52.130;5.428;2023-03-01T14:01:54;102920.94;;;7.68;44.48
73748;BME280;62056;52.130;5.428;2023-03-01T14:04:24;102919.91;;;7.69;43.51
73748;BME280;62056;52.130;5.428;2023-03-01T14:06:52;102917.06;;;7.71;43.61
73748;BME280;62056;52.130;5.428;2023-03-01T14:09:39;102915.00;;;7.73;43.62
73748;BME280;62056;52.130;5.428;2023-03-01T14:12:19;102907.66;;;7.75;43.87
73748;BME280;62056;52.130;5.428;2023-03-01T14:14:54;102905.00;;;7.75;43.07
73748;BME280;62056;52.130;5.428;2023-03-01T14:17:37;102895.22;;;7.76;42.28
73748;BME280;62056;52.130;5.428;2023-03-01T14:20:17;102895.00;;;7.77;42.32
73748;BME280;62056;52.130;5.428;2023-03-01T14:22:45;102891.13;;;7.80;41.92
73748;BME280;62056;52.130;5.428;2023-03-01T14:28:16;102884.94;;;7.86;41.78
73748;BME280;62056;52.130;5.428;2023-03-01T14:30:46;102882.50;;;7.84;42.80
73748;BME280;62056;52.130;5.428;2023-03-01T14:33:26;102878.25;;;7.83;42.85
73748;BME280;62056;52.130;5.428;2023-03-01T14:36:07;102869.25;;;7.84;42.79
73748;BME280;62056;52.130;5.428;2023-03-01T14:38:35;102868.69;;;7.82;40.30
73748;BME280;62056;52.130;5.428;2023-03-01T14:41:07;102861.09;;;7.86;42.92
73748;BME280;62056;52.130;5.428;2023-03-01T14:43:37;102859.72;;;7.83;41.78
73748;BME280;62056;52.130;5.428;2023-03-01T14:46:05;102851.31;;;7.86;42.50
73748;BME280;62056;52.130;5.428;2023-03-01T14:48:32;102856.81;;;7.85;42.55
73748;BME280;62056;52.130;5.428;2023-03-01T14:50:58;102854.19;;;7.85;42.63
73748;BME280;62056;52.130;5.428;2023-03-01T14:53:28;102856.63;;;7.86;42.08
73748;BME280;62056;52.130;5.428;2023-03-01T14:56:03;102862.28;;;7.90;42.14
73748;BME280;62056;52.130;5.428;2023-03-01T14:58:32;102869.84;;;7.86;42.28
73748;BME280;62056;52.130;5.428;2023-03-01T15:01:02;102861.69;;;7.88;42.37
73748;BME280;62056;52.130;5.428;2023-03-01T15:03:42;102865.97;;;7.89;41.99
73748;BME280;62056;52.130;5.428;2023-03-01T15:06:10;102857.00;;;7.90;42.94